sensor_id;sensor_type;location;lat;lon;timestamp;P1;durP1;ratioP1;P2;durP2;ratioP2
10872;SDS011;34586;53.616;10.032;2023-06-26T00:00:26;8.67;;;8.07;;
10872;SDS011;34586;53.616;10.032;2023-06-26T00:02:53;8.83;;;8.00;;
10872;SDS011;34586;53.616;10.032;2023-06-26T00:05:19;9.30;;;8.60;;
10872;SDS011;34586;53.616;10.032;2023-06-26T00:07:45;7.80;;;7.20;;
10872;SDS011;34586;53.616;10.032;2023-06-26T00:10:10;8.50;;;7.87;;
10872;SDS011;34586;53.616;10.032;2023-06-26T00:12:36;8.80;;;8.10;;
10872;SDS011;34586;53.616;10.032;2023-06-26T00:15:01;8.40;;;7.73;;
10872;SDS011;34586;53.616;10.032;2023-06-26T00:17:27;8.67;;;7.97;;
10872;SDS011;34586;53.616;10.032;2023-06-26T00:19:53;9.20;;;8.37;;
10872;SDS011;34586;53.616;10.032;2023-06-26T00:22:21;10.07;;;8.60;;
10872;SDS011;34586;53.616;10.032;2023-06-26T00:24:46;9.20;;;8.40;;
10872;SDS011;34586;53.616;10.032;2023-06-26T00:27:12;8.53;;;7.73;;
10872;SDS011;34586;53.616;10.032;2023-06-26T00:29:38;9.53;;;8.80;;
10872;SDS011;34586;53.616;10.032;2023-06-26T00:32:04;8.80;;;8.17;;
10872;SDS011;34586;53.616;10.032;2023-06-26T00:34:29;9.00;;;8.30;;
10872;SDS011;34586;53.616;10.032;2023-06-26T00:36:55;9.07;;;8.27;;
10872;SDS011;34586;53.616;10.032;2023-06-26T00:39:21;9.10;;;8.50;;
10872;SDS011;34586;53.616;10.032;2023-06-26T00:41:47;9.70;;;8.73;;
10872;SDS011;34586;53.616;10.032;2023-06-26T00:44:12;9.57;;;8.73;;
10872;SDS011;34586;53.616;10.032;2023-06-26T00:46:38;9.47;;;8.60;;
10872;SDS011;34586;53.616;10.032;2023-06-26T00:49:03;9.60;;;8.70;;
10872;SDS011;34586;53.616;10.032;2023-06-26T00:51:30;10.57;;;9.67;;
10872;SDS011;34586;53.616;10.032;2023-06-26T00:53:56;10.50;;;9.43;;
10872;SDS011;34586;53.616;10.032;2023-06-26T00:56:22;9.80;;;8.87;;
10872;SDS011;34586;53.616;10.032;2023-06-26T00:58:49;9.40;;;8.60;;
10872;SDS011;34586;53.616;10.032;2023-06-26T01:01:14;10.07;;;9.17;;
10872;SDS011;34586;53.616;10.032;2023-06-26T01:03:47;9.60;;;8.90;;
10872;SDS011;34586;53.616;10.032;2023-06-26T01:06:18;9.87;;;9.07;;
10872;SDS011;34586;53.616;10.032;2023-06-26T01:08:47;9.97;;;8.97;;
10872;SDS011;34586;53.616;10.032;2023-06-26T01:11:13;10.17;;;9.17;;
10872;SDS011;34586;53.616;10.032;2023-06-26T01:13:40;9.63;;;8.80;;
10872;SDS011;34586;53.616;10.032;2023-06-26T01:16:08;9.87;;;9.03;;
10872;SDS011;34586;53.616;10.032;2023-06-26T01:18:35;9.80;;;8.90;;
10872;SDS011;34586;53.616;10.032;2023-06-26T01:21:02;9.10;;;8.27;;
10872;SDS011;34586;53.616;10.032;2023-06-26T01:28:44;10.43;;;9.60;;
10872;SDS011;34586;53.616;10.032;2023-06-26T01:31:11;10.37;;;9.33;;
10872;SDS011;34586;53.616;10.032;2023-06-26T01:33:37;9.20;;;8.50;;
10872;SDS011;34586;53.616;10.032;2023-06-26T01:36:04;9.63;;;8.93;;
10872;SDS011;34586;53.616;10.032;2023-06-26T01:38:30;9.53;;;8.83;;
10872;SDS011;34586;53.616;10.032;2023-06-26T01:40:56;9.93;;;9.13;;
10872;SDS011;34586;53.616;10.032;2023-06-26T01:46:29;10.63;;;9.73;;
10872;SDS011;34586;53.616;10.032;2023-06-26T01:49:09;9.70;;;9.00;;
10872;SDS011;34586;53.616;10.032;2023-06-26T01:54:26;10.07;;;9.27;;
10872;SDS011;34586;53.616;10.032;2023-06-26T01:56:55;10.17;;;9.30;;
10872;SDS011;34586;53.616;10.032;2023-06-26T01:59:23;10.20;;;9.40;;
10872;SDS011;34586;53.616;10.032;2023-06-26T02:01:51;10.00;;;9.10;;
10872;SDS011;34586;53.616;10.032;2023-06-26T02:04:17;9.67;;;8.80;;
10872;SDS011;34586;53.616;10.032;2023-06-26T02:06:43;10.03;;;9.00;;
10872;SDS011;34586;53.616;10.032;2023-06-26T02:09:08;10.20;;;9.40;;
10872;SDS011;34586;53.616;10.032;2023-06-26T02:11:34;9.87;;;9.17;;
10872;SDS011;34586;53.616;10.032;2023-06-26T02:14:00;9.17;;;8.47;;
10872;SDS011;34586;53.616;10.032;2023-06-26T02:16:25;8.50;;;7.90;;
10872;SDS011;34586;53.616;10.032;2023-06-26T02:18:51;11.10;;;10.20;;
10872;SDS011;34586;53.616;10.032;2023-06-26T02:21:16;9.90;;;9.10;;
10872;SDS011;34586;53.616;10.032;2023-06-26T02:23:42;9.73;;;8.93;;
10872;SDS011;34586;53.616;10.032;2023-06-26T02:26:07;10.27;;;9.37;;
10872;SDS011;34586;53.616;10.032;2023-06-26T02:28:33;9.70;;;9.00;;
10872;SDS011;34586;53.616;10.032;2023-06-26T02:30:59;10.17;;;9.37;;
10872;SDS011;34586;53.616;10.032;2023-06-26T02:33:25;11.47;;;9.53;;
10872;SDS011;34586;53.616;10.032;2023-06-26T02:35:51;9.90;;;9.07;;
10872;SDS011;34586;53.616;10.032;2023-06-26T02:38:17;11.03;;;9.87;;
10872;SDS011;34586;53.616;10.032;2023-06-26T02:40:43;9.77;;;9.03;;
10872;SDS011;34586;53.616;10.032;2023-06-26T02:43:09;9.97;;;9.10;;
10872;SDS011;34586;53.616;10.032;2023-06-26T02:45:34;9.63;;;8.90;;
10872;SDS011;34586;53.616;10.032;2023-06-26T02:48:00;10.53;;;9.63;;
10872;SDS011;34586;53.616;10.032;2023-06-26T02:50:25;10.00;;;9.30;;
10872;SDS011;34586;53.616;10.032;2023-06-26T02:52:51;10.50;;;9.50;;
10872;SDS011;34586;53.616;10.032;2023-06-26T02:55:18;10.80;;;9.70;;
10872;SDS011;34586;53.616;10.032;2023-06-26T02:57:44;10.23;;;9.43;;
10872;SDS011;34586;53.616;10.032;2023-06-26T03:00:10;10.60;;;9.70;;
10872;SDS011;34586;53.616;10.032;2023-06-26T03:02:36;9.63;;;8.93;;
10872;SDS011;34586;53.616;10.032;2023-06-26T03:05:02;10.40;;;9.50;;
10872;SDS011;34586;53.616;10.032;2023-06-26T03:07:29;10.07;;;9.27;;
10872;SDS011;34586;53.616;10.032;2023-06-26T03:09:54;10.03;;;9.20;;
10872;SDS011;34586;53.616;10.032;2023-06-26T03:12:20;10.03;;;9.30;;
10872;SDS011;34586;53.616;10.032;2023-06-26T03:14:46;9.83;;;8.93;;
10872;SDS011;34586;53.616;10.032;2023-06-26T03:17:11;9.77;;;8.97;;
10872;SDS011;34586;53.616;10.032;2023-06-26T03:19:37;10.00;;;9.20;;
10872;SDS011;34586;53.616;10.032;2023-06-26T03:22:02;9.53;;;8.77;;
10872;SDS011;34586;53.616;10.032;2023-06-26T03:24:28;9.30;;;8.60;;
10872;SDS011;34586;53.616;10.032;2023-06-26T03:26:54;9.33;;;8.53;;
10872;SDS011;34586;53.616;10.032;2023-06-26T03:29:20;8.90;;;8.20;;
10872;SDS011;34586;53.616;10.032;2023-06-26T03:31:45;8.80;;;8.07;;
10872;SDS011;34586;53.616;10.032;2023-06-26T03:34:11;9.23;;;8.43;;
10872;SDS011;34586;53.616;10.032;2023-06-26T03:36:36;8.70;;;8.00;;
10872;SDS011;34586;53.616;10.032;2023-06-26T03:39:02;8.67;;;7.97;;
10872;SDS011;34586;53.616;10.032;2023-06-26T03:41:29;8.40;;;7.60;;
10872;SDS011;34586;53.616;10.032;2023-06-26T03:43:54;8.50;;;7.90;;
10872;SDS011;34586;53.616;10.032;2023-06-26T03:46:21;9.23;;;8.53;;
10872;SDS011;34586;53.616;10.032;2023-06-26T03:48:47;8.90;;;8.10;;
10872;SDS011;34586;53.616;10.032;2023-06-26T03:51:13;8.13;;;7.43;;
10872;SDS011;34586;53.616;10.032;2023-06-26T03:53:39;8.60;;;7.90;;
10872;SDS011;34586;53.616;10.032;2023-06-26T03:56:05;8.37;;;7.60;;
10872;SDS011;34586;53.616;10.032;2023-06-26T03:58:30;7.83;;;7.23;;
10872;SDS011;34586;53.616;10.032;2023-06-26T04:00:56;8.00;;;7.20;;
10872;SDS011;34586;53.616;10.032;2023-06-26T04:03:23;8.27;;;7.37;;
10872;SDS011;34586;53.616;10.032;2023-06-26T04:05:49;7.90;;;7.20;;
10872;SDS011;34586;53.616;10.032;2023-06-26T04:08:14;6.93;;;6.40;;
10872;SDS011;34586;53.616;10.032;2023-06-26T04:10:40;7.43;;;6.80;;
10872;SDS011;34586;53.616;10.032;2023-06-26T04:13:06;9.07;;;7.37;;
10872;SDS011;34586;53.616;10.032;2023-06-26T04:15:31;7.67;;;7.00;;
10872;SDS011;34586;53.616;10.032;2023-06-26T04:17:57;7.17;;;6.57;;
10872;SDS011;34586;53.616;10.032;2023-06-26T04:20:22;7.43;;;6.83;;
10872;SDS011;34586;53.616;10.032;2023-06-26T04:22:48;7.13;;;6.53;;
10872;SDS011;34586;53.616;10.032;2023-06-26T04:25:13;7.07;;;6.47;;
10872;SDS011;34586;53.616;10.032;2023-06-26T04:27:39;7.43;;;6.93;;
10872;SDS011;34586;53.616;10.032;2023-06-26T04:30:05;10.93;;;7.03;;
10872;SDS011;34586;53.616;10.032;2023-06-26T04:32:31;6.37;;;5.87;;
10872;SDS011;34586;53.616;10.032;2023-06-26T04:34:56;6.87;;;6.37;;
10872;SDS011;34586;53.616;10.032;2023-06-26T04:37:22;6.80;;;6.30;;
10872;SDS011;34586;53.616;10.032;2023-06-26T04:39:49;7.57;;;6.87;;
10872;SDS011;34586;53.616;10.032;2023-06-26T04:42:15;6.67;;;6.10;;
10872;SDS011;34586;53.616;10.032;2023-06-26T04:44:40;7.03;;;6.30;;
10872;SDS011;34586;53.616;10.032;2023-06-26T04:47:06;7.17;;;6.57;;
10872;SDS011;34586;53.616;10.032;2023-06-26T04:49:33;7.00;;;6.40;;
10872;SDS011;34586;53.616;10.032;2023-06-26T04:51:58;7.13;;;6.43;;
10872;SDS011;34586;53.616;10.032;2023-06-26T04:54:25;7.30;;;6.60;;
10872;SDS011;34586;53.616;10.032;2023-06-26T04:56:51;7.00;;;6.40;;
10872;SDS011;34586;53.616;10.032;2023-06-26T04:59:16;7.73;;;6.70;;
10872;SDS011;34586;53.616;10.032;2023-06-26T05:01:42;6.83;;;6.27;;
10872;SDS011;34586;53.616;10.032;2023-06-26T05:04:13;7.03;;;6.43;;
10872;SDS011;34586;53.616;10.032;2023-06-26T05:06:40;7.13;;;6.43;;
10872;SDS011;34586;53.616;10.032;2023-06-26T05:09:05;6.80;;;5.87;;
10872;SDS011;34586;53.616;10.032;2023-06-26T05:11:31;7.63;;;6.20;;
10872;SDS011;34586;53.616;10.032;2023-06-26T05:13:57;6.20;;;5.70;;
10872;SDS011;34586;53.616;10.032;2023-06-26T05:16:22;6.00;;;5.50;;
10872;SDS011;34586;53.616;10.032;2023-06-26T05:18:48;6.40;;;5.90;;
10872;SDS011;34586;53.616;10.032;2023-06-26T05:21:14;6.27;;;5.77;;
10872;SDS011;34586;53.616;10.032;2023-06-26T05:23:41;9.27;;;6.27;;
10872;SDS011;34586;53.616;10.032;2023-06-26T05:26:09;6.27;;;5.77;;
10872;SDS011;34586;53.616;10.032;2023-06-26T05:28:35;6.90;;;6.30;;
10872;SDS011;34586;53.616;10.032;2023-06-26T05:31:02;6.93;;;5.90;;
10872;SDS011;34586;53.616;10.032;2023-06-26T05:33:30;6.53;;;5.93;;
10872;SDS011;34586;53.616;10.032;2023-06-26T05:35:56;5.97;;;5.47;;
10872;SDS011;34586;53.616;10.032;2023-06-26T05:38:23;7.13;;;6.43;;
10872;SDS011;34586;53.616;10.032;2023-06-26T05:40:49;5.93;;;5.43;;
10872;SDS011;34586;53.616;10.032;2023-06-26T05:43:16;6.60;;;5.23;;
10872;SDS011;34586;53.616;10.032;2023-06-26T05:45:45;6.40;;;5.80;;
10872;SDS011;34586;53.616;10.032;2023-06-26T05:48:11;6.67;;;5.87;;
10872;SDS011;34586;53.616;10.032;2023-06-26T05:50:37;7.10;;;6.37;;
10872;SDS011;34586;53.616;10.032;2023-06-26T05:53:03;5.90;;;5.37;;
10872;SDS011;34586;53.616;10.032;2023-06-26T05:55:30;5.63;;;5.13;;
10872;SDS011;34586;53.616;10.032;2023-06-26T05:57:56;7.97;;;6.07;;
10872;SDS011;34586;53.616;10.032;2023-06-26T06:00:24;6.57;;;5.90;;
10872;SDS011;34586;53.616;10.032;2023-06-26T06:02:51;6.00;;;5.40;;
10872;SDS011;34586;53.616;10.032;2023-06-26T06:05:19;6.00;;;5.50;;
10872;SDS011;34586;53.616;10.032;2023-06-26T06:07:45;6.50;;;5.83;;
10872;SDS011;34586;53.616;10.032;2023-06-26T06:10:11;7.27;;;6.10;;
10872;SDS011;34586;53.616;10.032;2023-06-26T06:12:37;6.87;;;5.33;;
10872;SDS011;34586;53.616;10.032;2023-06-26T06:15:03;5.30;;;4.90;;
10872;SDS011;34586;53.616;10.032;2023-06-26T06:17:29;5.80;;;5.30;;
10872;SDS011;34586;53.616;10.032;2023-06-26T06:19:55;7.37;;;6.13;;
10872;SDS011;34586;53.616;10.032;2023-06-26T06:22:20;6.83;;;5.60;;
10872;SDS011;34586;53.616;10.032;2023-06-26T06:24:46;7.80;;;5.47;;
10872;SDS011;34586;53.616;10.032;2023-06-26T06:27:13;5.70;;;5.20;;
10872;SDS011;34586;53.616;10.032;2023-06-26T06:29:39;5.43;;;5.00;;
10872;SDS011;34586;53.616;10.032;2023-06-26T06:32:05;5.20;;;4.80;;
10872;SDS011;34586;53.616;10.032;2023-06-26T06:34:31;5.80;;;5.23;;
10872;SDS011;34586;53.616;10.032;2023-06-26T06:36:56;5.73;;;5.33;;
10872;SDS011;34586;53.616;10.032;2023-06-26T06:39:22;6.20;;;5.10;;
10872;SDS011;34586;53.616;10.032;2023-06-26T06:41:48;5.27;;;4.83;;
10872;SDS011;34586;53.616;10.032;2023-06-26T06:44:13;6.13;;;5.53;;
10872;SDS011;34586;53.616;10.032;2023-06-26T06:46:39;6.33;;;5.63;;
10872;SDS011;34586;53.616;10.032;2023-06-26T06:49:04;6.03;;;5.47;;
10872;SDS011;34586;53.616;10.032;2023-06-26T06:51:30;5.60;;;5.10;;
10872;SDS011;34586;53.616;10.032;2023-06-26T06:53:56;6.10;;;5.50;;
10872;SDS011;34586;53.616;10.032;2023-06-26T06:56:21;9.03;;;5.57;;
10872;SDS011;34586;53.616;10.032;2023-06-26T06:58:47;5.90;;;5.40;;
10872;SDS011;34586;53.616;10.032;2023-06-26T07:01:13;5.10;;;4.60;;
10872;SDS011;34586;53.616;10.032;2023-06-26T07:03:39;5.73;;;5.27;;
10872;SDS011;34586;53.616;10.032;2023-06-26T07:06:05;5.60;;;5.10;;
10872;SDS011;34586;53.616;10.032;2023-06-26T07:08:31;5.17;;;4.57;;
10872;SDS011;34586;53.616;10.032;2023-06-26T07:10:56;6.27;;;4.83;;
10872;SDS011;34586;53.616;10.032;2023-06-26T07:13:22;6.77;;;4.90;;
10872;SDS011;34586;53.616;10.032;2023-06-26T07:15:48;5.50;;;5.10;;
10872;SDS011;34586;53.616;10.032;2023-06-26T07:18:14;5.30;;;4.80;;
10872;SDS011;34586;53.616;10.032;2023-06-26T07:20:40;5.60;;;5.07;;
10872;SDS011;34586;53.616;10.032;2023-06-26T07:23:06;5.70;;;5.20;;
10872;SDS011;34586;53.616;10.032;2023-06-26T07:25:32;6.07;;;5.30;;
10872;SDS011;34586;53.616;10.032;2023-06-26T07:27:57;5.37;;;4.97;;
10872;SDS011;34586;53.616;10.032;2023-06-26T07:30:23;7.77;;;5.50;;
10872;SDS011;34586;53.616;10.032;2023-06-26T07:32:49;5.37;;;4.87;;
10872;SDS011;34586;53.616;10.032;2023-06-26T07:35:15;9.50;;;5.53;;
10872;SDS011;34586;53.616;10.032;2023-06-26T07:37:41;5.40;;;5.00;;
10872;SDS011;34586;53.616;10.032;2023-06-26T07:40:07;5.33;;;4.87;;
10872;SDS011;34586;53.616;10.032;2023-06-26T07:42:33;5.80;;;5.40;;
10872;SDS011;34586;53.616;10.032;2023-06-26T07:44:59;5.90;;;5.10;;
10872;SDS011;34586;53.616;10.032;2023-06-26T07:47:24;5.20;;;4.80;;
10872;SDS011;34586;53.616;10.032;2023-06-26T07:49:50;5.93;;;5.30;;
10872;SDS011;34586;53.616;10.032;2023-06-26T07:52:16;7.80;;;4.83;;
10872;SDS011;34586;53.616;10.032;2023-06-26T07:54:42;5.47;;;5.03;;
10872;SDS011;34586;53.616;10.032;2023-06-26T07:57:08;5.63;;;5.13;;
10872;SDS011;34586;53.616;10.032;2023-06-26T07:59:34;5.37;;;4.87;;
10872;SDS011;34586;53.616;10.032;2023-06-26T08:01:59;6.50;;;5.13;;
10872;SDS011;34586;53.616;10.032;2023-06-26T08:04:26;5.17;;;4.77;;
10872;SDS011;34586;53.616;10.032;2023-06-26T08:06:55;8.03;;;5.20;;
10872;SDS011;34586;53.616;10.032;2023-06-26T08:09:23;5.23;;;4.73;;
10872;SDS011;34586;53.616;10.032;2023-06-26T08:11:50;6.00;;;4.87;;
10872;SDS011;34586;53.616;10.032;2023-06-26T08:14:16;5.53;;;5.03;;
10872;SDS011;34586;53.616;10.032;2023-06-26T08:16:43;5.07;;;4.73;;
10872;SDS011;34586;53.616;10.032;2023-06-26T08:19:09;5.40;;;4.90;;
10872;SDS011;34586;53.616;10.032;2023-06-26T08:21:35;6.27;;;5.23;;
10872;SDS011;34586;53.616;10.032;2023-06-26T08:24:01;7.33;;;5.47;;
10872;SDS011;34586;53.616;10.032;2023-06-26T08:26:27;6.73;;;5.43;;
10872;SDS011;34586;53.616;10.032;2023-06-26T08:28:53;7.13;;;5.60;;
10872;SDS011;34586;53.616;10.032;2023-06-26T08:31:19;7.60;;;4.87;;
10872;SDS011;34586;53.616;10.032;2023-06-26T08:33:44;6.17;;;5.67;;
10872;SDS011;34586;53.616;10.032;2023-06-26T08:36:10;5.87;;;5.27;;
10872;SDS011;34586;53.616;10.032;2023-06-26T08:38:36;5.50;;;5.10;;
10872;SDS011;34586;53.616;10.032;2023-06-26T08:41:01;5.70;;;5.30;;
10872;SDS011;34586;53.616;10.032;2023-06-26T08:43:27;5.30;;;4.90;;
10872;SDS011;34586;53.616;10.032;2023-06-26T08:45:53;5.57;;;5.07;;
10872;SDS011;34586;53.616;10.032;2023-06-26T08:48:20;5.97;;;5.47;;
10872;SDS011;34586;53.616;10.032;2023-06-26T08:50:48;5.57;;;5.07;;
10872;SDS011;34586;53.616;10.032;2023-06-26T08:53:23;5.60;;;4.60;;
10872;SDS011;34586;53.616;10.032;2023-06-26T08:55:59;8.70;;;5.10;;
10872;SDS011;34586;53.616;10.032;2023-06-26T08:58:25;8.53;;;5.23;;
10872;SDS011;34586;53.616;10.032;2023-06-26T09:00:51;6.77;;;5.07;;
10872;SDS011;34586;53.616;10.032;2023-06-26T09:03:17;5.97;;;5.37;;
10872;SDS011;34586;53.616;10.032;2023-06-26T09:05:43;9.47;;;5.83;;
10872;SDS011;34586;53.616;10.032;2023-06-26T09:08:08;8.40;;;6.03;;
10872;SDS011;34586;53.616;10.032;2023-06-26T09:10:34;7.23;;;5.77;;
10872;SDS011;34586;53.616;10.032;2023-06-26T09:13:00;8.33;;;5.90;;
10872;SDS011;34586;53.616;10.032;2023-06-26T09:15:27;8.27;;;6.17;;
10872;SDS011;34586;53.616;10.032;2023-06-26T09:18:01;8.87;;;6.17;;
10872;SDS011;34586;53.616;10.032;2023-06-26T09:20:30;8.27;;;6.83;;
10872;SDS011;34586;53.616;10.032;2023-06-26T09:22:58;8.50;;;6.50;;
10872;SDS011;34586;53.616;10.032;2023-06-26T09:25:25;7.83;;;7.07;;
10872;SDS011;34586;53.616;10.032;2023-06-26T09:27:51;7.10;;;6.40;;
10872;SDS011;34586;53.616;10.032;2023-06-26T09:30:17;8.50;;;7.40;;
10872;SDS011;34586;53.616;10.032;2023-06-26T09:32:43;10.07;;;7.57;;
10872;SDS011;34586;53.616;10.032;2023-06-26T09:35:10;8.03;;;7.30;;
10872;SDS011;34586;53.616;10.032;2023-06-26T09:37:35;10.27;;;6.47;;
10872;SDS011;34586;53.616;10.032;2023-06-26T09:40:01;7.10;;;6.40;;
10872;SDS011;34586;53.616;10.032;2023-06-26T09:42:28;8.23;;;7.10;;
10872;SDS011;34586;53.616;10.032;2023-06-26T09:44:54;8.47;;;7.17;;
10872;SDS011;34586;53.616;10.032;2023-06-26T09:47:20;9.40;;;8.30;;
10872;SDS011;34586;53.616;10.032;2023-06-26T09:49:46;11.87;;;8.23;;
10872;SDS011;34586;53.616;10.032;2023-06-26T09:52:15;10.83;;;7.87;;
10872;SDS011;34586;53.616;10.032;2023-06-26T09:54:42;9.47;;;7.47;;
10872;SDS011;34586;53.616;10.032;2023-06-26T09:57:10;11.23;;;8.20;;
10872;SDS011;34586;53.616;10.032;2023-06-26T09:59:37;8.50;;;7.70;;
10872;SDS011;34586;53.616;10.032;2023-06-26T10:02:03;11.23;;;7.83;;
10872;SDS011;34586;53.616;10.032;2023-06-26T10:04:29;12.67;;;7.33;;
10872;SDS011;34586;53.616;10.032;2023-06-26T10:06:55;8.10;;;7.37;;
10872;SDS011;34586;53.616;10.032;2023-06-26T10:09:22;8.00;;;6.90;;
10872;SDS011;34586;53.616;10.032;2023-06-26T10:12:00;9.17;;;6.73;;
10872;SDS011;34586;53.616;10.032;2023-06-26T10:14:32;9.73;;;8.47;;
10872;SDS011;34586;53.616;10.032;2023-06-26T10:17:01;13.37;;;7.93;;
10872;SDS011;34586;53.616;10.032;2023-06-26T10:19:31;10.43;;;8.03;;
10872;SDS011;34586;53.616;10.032;2023-06-26T10:21:58;9.80;;;8.43;;
10872;SDS011;34586;53.616;10.032;2023-06-26T10:24:24;11.13;;;9.37;;
10872;SDS011;34586;53.616;10.032;2023-06-26T10:26:57;11.43;;;8.87;;
10872;SDS011;34586;53.616;10.032;2023-06-26T10:29:32;13.17;;;9.20;;
10872;SDS011;34586;53.616;10.032;2023-06-26T10:31:59;12.60;;;9.83;;
10872;SDS011;34586;53.616;10.032;2023-06-26T10:34:26;10.03;;;8.50;;
10872;SDS011;34586;53.616;10.032;2023-06-26T10:36:58;8.50;;;7.60;;
10872;SDS011;34586;53.616;10.032;2023-06-26T10:39:25;8.47;;;6.03;;
10872;SDS011;34586;53.616;10.032;2023-06-26T10:41:51;6.90;;;6.20;;
10872;SDS011;34586;53.616;10.032;2023-06-26T10:44:20;9.70;;;5.63;;
10872;SDS011;34586;53.616;10.032;2023-06-26T10:46:49;6.13;;;5.03;;
10872;SDS011;34586;53.616;10.032;2023-06-26T10:49:15;6.60;;;5.03;;
10872;SDS011;34586;53.616;10.032;2023-06-26T10:51:48;5.23;;;4.73;;
10872;SDS011;34586;53.616;10.032;2023-06-26T10:54:15;7.23;;;5.20;;
10872;SDS011;34586;53.616;10.032;2023-06-26T10:56:43;5.27;;;4.87;;
10872;SDS011;34586;53.616;10.032;2023-06-26T10:59:14;7.90;;;4.97;;
10872;SDS011;34586;53.616;10.032;2023-06-26T11:01:44;5.67;;;5.07;;
10872;SDS011;34586;53.616;10.032;2023-06-26T11:04:12;5.67;;;5.17;;
10872;SDS011;34586;53.616;10.032;2023-06-26T11:06:40;6.30;;;5.67;;
10872;SDS011;34586;53.616;10.032;2023-06-26T11:09:10;5.63;;;5.13;;
10872;SDS011;34586;53.616;10.032;2023-06-26T11:14:22;8.17;;;6.07;;
10872;SDS011;34586;53.616;10.032;2023-06-26T11:16:49;8.57;;;6.13;;
10872;SDS011;34586;53.616;10.032;2023-06-26T11:19:16;8.60;;;5.47;;
10872;SDS011;34586;53.616;10.032;2023-06-26T11:21:43;9.40;;;5.70;;
10872;SDS011;34586;53.616;10.032;2023-06-26T11:24:09;8.83;;;4.87;;
10872;SDS011;34586;53.616;10.032;2023-06-26T11:26:40;9.53;;;4.70;;
10872;SDS011;34586;53.616;10.032;2023-06-26T11:29:09;10.50;;;4.77;;
10872;SDS011;34586;53.616;10.032;2023-06-26T11:31:36;8.13;;;4.40;;
10872;SDS011;34586;53.616;10.032;2023-06-26T11:34:07;5.07;;;4.17;;
10872;SDS011;34586;53.616;10.032;2023-06-26T11:36:40;6.83;;;4.10;;
10872;SDS011;34586;53.616;10.032;2023-06-26T11:39:07;14.60;;;4.53;;
10872;SDS011;34586;53.616;10.032;2023-06-26T11:41:35;8.93;;;4.00;;
10872;SDS011;34586;53.616;10.032;2023-06-26T11:44:02;10.83;;;3.80;;
10872;SDS011;34586;53.616;10.032;2023-06-26T11:46:33;7.83;;;3.90;;
10872;SDS011;34586;53.616;10.032;2023-06-26T11:49:02;8.47;;;3.90;;
10872;SDS011;34586;53.616;10.032;2023-06-26T11:51:31;7.90;;;3.40;;
10872;SDS011;34586;53.616;10.032;2023-06-26T11:54:00;6.10;;;2.90;;
10872;SDS011;34586;53.616;10.032;2023-06-26T11:56:28;9.77;;;3.00;;
10872;SDS011;34586;53.616;10.032;2023-06-26T11:59:03;10.07;;;2.80;;
10872;SDS011;34586;53.616;10.032;2023-06-26T12:01:38;6.40;;;2.30;;
10872;SDS011;34586;53.616;10.032;2023-06-26T12:04:06;4.60;;;2.10;;
10872;SDS011;34586;53.616;10.032;2023-06-26T12:06:37;5.80;;;1.97;;
10872;SDS011;34586;53.616;10.032;2023-06-26T12:09:05;8.47;;;2.27;;
10872;SDS011;34586;53.616;10.032;2023-06-26T12:11:34;7.83;;;2.43;;
10872;SDS011;34586;53.616;10.032;2023-06-26T12:14:01;6.67;;;1.87;;
10872;SDS011;34586;53.616;10.032;2023-06-26T12:16:29;6.60;;;1.90;;
10872;SDS011;34586;53.616;10.032;2023-06-26T12:19:02;5.83;;;1.93;;
10872;SDS011;34586;53.616;10.032;2023-06-26T12:24:07;7.30;;;2.33;;
10872;SDS011;34586;53.616;10.032;2023-06-26T12:26:35;7.90;;;2.33;;
10872;SDS011;34586;53.616;10.032;2023-06-26T12:29:14;5.67;;;1.90;;
10872;SDS011;34586;53.616;10.032;2023-06-26T12:31:43;6.50;;;2.00;;
10872;SDS011;34586;53.616;10.032;2023-06-26T12:34:13;7.73;;;2.27;;
10872;SDS011;34586;53.616;10.032;2023-06-26T12:36:47;9.60;;;2.50;;
10872;SDS011;34586;53.616;10.032;2023-06-26T12:39:14;4.50;;;2.00;;
10872;SDS011;34586;53.616;10.032;2023-06-26T12:41:48;7.07;;;2.23;;
10872;SDS011;34586;53.616;10.032;2023-06-26T12:44:18;4.87;;;1.90;;
10872;SDS011;34586;53.616;10.032;2023-06-26T12:46:45;3.53;;;1.80;;
10872;SDS011;34586;53.616;10.032;2023-06-26T12:49:13;5.70;;;1.80;;
10872;SDS011;34586;53.616;10.032;2023-06-26T12:51:38;5.27;;;1.70;;
10872;SDS011;34586;53.616;10.032;2023-06-26T12:54:05;3.57;;;1.80;;
10872;SDS011;34586;53.616;10.032;2023-06-26T12:56:31;8.93;;;2.20;;
10872;SDS011;34586;53.616;10.032;2023-06-26T12:58:56;5.90;;;1.73;;
10872;SDS011;34586;53.616;10.032;2023-06-26T13:01:22;4.40;;;1.70;;
10872;SDS011;34586;53.616;10.032;2023-06-26T13:03:49;3.70;;;1.83;;
10872;SDS011;34586;53.616;10.032;2023-06-26T13:06:16;5.50;;;1.63;;
10872;SDS011;34586;53.616;10.032;2023-06-26T13:08:41;5.33;;;1.80;;
10872;SDS011;34586;53.616;10.032;2023-06-26T13:11:08;4.17;;;1.90;;
10872;SDS011;34586;53.616;10.032;2023-06-26T13:13:34;4.83;;;1.50;;
10872;SDS011;34586;53.616;10.032;2023-06-26T13:15:59;7.07;;;1.63;;
10872;SDS011;34586;53.616;10.032;2023-06-26T13:18:25;3.90;;;1.63;;
10872;SDS011;34586;53.616;10.032;2023-06-26T13:20:51;5.30;;;1.60;;
10872;SDS011;34586;53.616;10.032;2023-06-26T13:23:16;4.17;;;1.60;;
10872;SDS011;34586;53.616;10.032;2023-06-26T13:25:43;5.33;;;1.30;;
10872;SDS011;34586;53.616;10.032;2023-06-26T13:28:09;4.47;;;1.47;;
10872;SDS011;34586;53.616;10.032;2023-06-26T13:30:35;3.67;;;1.50;;
10872;SDS011;34586;53.616;10.032;2023-06-26T13:33:00;4.93;;;1.37;;
10872;SDS011;34586;53.616;10.032;2023-06-26T13:35:26;3.20;;;1.27;;
10872;SDS011;34586;53.616;10.032;2023-06-26T13:37:51;3.73;;;1.40;;
10872;SDS011;34586;53.616;10.032;2023-06-26T13:40:17;2.73;;;1.43;;
10872;SDS011;34586;53.616;10.032;2023-06-26T13:42:43;2.77;;;1.50;;
10872;SDS011;34586;53.616;10.032;2023-06-26T13:45:09;3.93;;;1.27;;
10872;SDS011;34586;53.616;10.032;2023-06-26T13:47:35;7.50;;;1.57;;
10872;SDS011;34586;53.616;10.032;2023-06-26T13:50:03;2.93;;;1.30;;
10872;SDS011;34586;53.616;10.032;2023-06-26T13:52:29;3.50;;;1.47;;
10872;SDS011;34586;53.616;10.032;2023-06-26T13:54:55;5.53;;;1.37;;
10872;SDS011;34586;53.616;10.032;2023-06-26T13:57:20;4.33;;;1.63;;
10872;SDS011;34586;53.616;10.032;2023-06-26T13:59:47;4.13;;;1.33;;
10872;SDS011;34586;53.616;10.032;2023-06-26T14:02:13;4.97;;;1.47;;
10872;SDS011;34586;53.616;10.032;2023-06-26T14:04:38;3.47;;;1.27;;
10872;SDS011;34586;53.616;10.032;2023-06-26T14:07:05;4.20;;;1.40;;
10872;SDS011;34586;53.616;10.032;2023-06-26T14:09:30;3.00;;;1.30;;
10872;SDS011;34586;53.616;10.032;2023-06-26T14:11:56;2.27;;;1.20;;
10872;SDS011;34586;53.616;10.032;2023-06-26T14:14:22;4.13;;;1.20;;
10872;SDS011;34586;53.616;10.032;2023-06-26T14:16:47;3.10;;;1.07;;
10872;SDS011;34586;53.616;10.032;2023-06-26T14:19:14;4.00;;;1.40;;
10872;SDS011;34586;53.616;10.032;2023-06-26T14:21:42;1.57;;;1.00;;
10872;SDS011;34586;53.616;10.032;2023-06-26T14:24:08;1.80;;;1.10;;
10872;SDS011;34586;53.616;10.032;2023-06-26T14:26:33;2.60;;;1.10;;
10872;SDS011;34586;53.616;10.032;2023-06-26T14:28:59;4.23;;;1.20;;
10872;SDS011;34586;53.616;10.032;2023-06-26T14:31:25;1.57;;;1.00;;
10872;SDS011;34586;53.616;10.032;2023-06-26T14:33:51;2.83;;;1.00;;
10872;SDS011;34586;53.616;10.032;2023-06-26T14:36:17;1.93;;;1.30;;
10872;SDS011;34586;53.616;10.032;2023-06-26T14:38:43;3.20;;;1.17;;
10872;SDS011;34586;53.616;10.032;2023-06-26T14:41:09;2.37;;;1.10;;
10872;SDS011;34586;53.616;10.032;2023-06-26T14:43:35;1.53;;;1.00;;
10872;SDS011;34586;53.616;10.032;2023-06-26T14:46:01;4.60;;;1.10;;